createdAt,value
2022-12-04T00:00:57.249Z,931.68
2022-12-04T00:01:57.294Z,931.66
2022-12-04T00:02:57.359Z,931.71
2022-12-04T00:03:57.311Z,931.69
2022-12-04T00:04:57.410Z,931.74
2022-12-04T00:05:57.340Z,931.73
2022-12-04T00:06:59.064Z,931.73
2022-12-04T00:07:57.469Z,931.77
2022-12-04T00:08:57.392Z,931.79
2022-12-04T00:09:57.505Z,931.75
2022-12-04T00:10:57.419Z,931.75
2022-12-04T00:11:57.446Z,931.77
2022-12-04T00:12:57.457Z,931.79
2022-12-04T00:14:02.963Z,931.79
2022-12-04T00:15:27.396Z,931.78
2022-12-04T00:15:57.524Z,931.75
2022-12-04T00:16:57.529Z,931.77
2022-12-04T00:17:57.560Z,931.76
2022-12-04T00:18:57.565Z,931.78
2022-12-04T00:19:57.716Z,931.78
2022-12-04T00:20:57.598Z,931.77
2022-12-04T00:21:57.609Z,931.81
2022-12-04T00:22:57.631Z,931.84
2022-12-04T00:23:57.649Z,931.84
2022-12-04T00:24:57.659Z,931.83
2022-12-04T00:25:57.676Z,931.81
2022-12-04T00:26:57.700Z,931.84
2022-12-04T00:27:57.717Z,931.84
2022-12-04T00:28:57.733Z,931.86
2022-12-04T00:29:57.751Z,931.85
2022-12-04T00:30:57.762Z,931.85
2022-12-04T00:31:57.849Z,931.86
2022-12-04T00:32:57.811Z,931.85
2022-12-04T00:33:58.534Z,931.86
2022-12-04T00:34:57.839Z,931.85
2022-12-04T00:35:57.856Z,931.87
2022-12-04T00:36:57.862Z,931.85
2022-12-04T00:37:57.881Z,931.82
2022-12-04T00:38:57.897Z,931.87
2022-12-04T00:39:58.010Z,931.85
2022-12-04T00:40:57.934Z,931.91
2022-12-04T00:41:57.949Z,931.87
2022-12-04T00:42:57.974Z,931.86
2022-12-04T00:43:57.985Z,931.90
2022-12-04T00:44:58.007Z,931.90
2022-12-04T00:45:58.074Z,931.91
2022-12-04T00:46:58.044Z,931.87
2022-12-04T00:47:58.053Z,931.88
2022-12-04T00:48:58.079Z,931.84
2022-12-04T00:49:58.220Z,931.81
2022-12-04T00:50:58.101Z,931.84
2022-12-04T00:51:58.119Z,931.83
2022-12-04T00:52:58.136Z,931.86
2022-12-04T00:53:58.160Z,931.80
2022-12-04T00:54:58.177Z,931.83
2022-12-04T00:55:58.195Z,931.81
2022-12-04T00:56:58.204Z,931.79
2022-12-04T00:57:59.972Z,931.80
2022-12-04T00:58:58.245Z,931.80
2022-12-04T00:59:58.256Z,931.82
2022-12-04T01:00:58.311Z,931.80
2022-12-04T01:01:58.290Z,931.82
2022-12-04T01:02:58.419Z,931.81
2022-12-04T01:03:58.332Z,931.81
2022-12-04T01:04:58.347Z,931.82
2022-12-04T01:05:58.375Z,931.78
2022-12-04T01:07:04.613Z,931.80
2022-12-04T01:07:58.449Z,931.77
2022-12-04T01:08:58.415Z,931.77
2022-12-04T01:09:58.433Z,931.74
2022-12-04T01:10:58.450Z,931.77
2022-12-04T01:11:58.468Z,931.79
2022-12-04T01:12:58.477Z,931.77
2022-12-04T01:13:58.492Z,931.78
2022-12-04T01:14:58.514Z,931.80
2022-12-04T01:15:58.569Z,931.80
2022-12-04T01:16:58.665Z,931.80
2022-12-04T01:17:58.568Z,931.81
2022-12-04T01:18:58.581Z,931.78
2022-12-04T01:19:58.606Z,931.83
2022-12-04T01:20:58.611Z,931.78
2022-12-04T01:21:58.689Z,931.80
2022-12-04T01:22:58.655Z,931.79
2022-12-04T01:23:58.664Z,931.76
2022-12-04T01:24:58.687Z,931.80
2022-12-04T01:25:58.702Z,931.80
2022-12-04T01:26:58.723Z,931.84
2022-12-04T01:27:58.730Z,931.80
2022-12-04T01:28:58.755Z,931.85
2022-12-04T01:29:58.772Z,931.83
2022-12-04T01:30:58.782Z,931.85
2022-12-04T01:31:58.878Z,931.84
2022-12-04T01:32:58.817Z,931.81
2022-12-04T01:33:58.843Z,931.83
2022-12-04T01:34:58.856Z,931.84
2022-12-04T01:35:58.904Z,931.85
2022-12-04T01:36:58.890Z,931.86
2022-12-04T01:37:58.922Z,931.84
2022-12-04T01:38:58.931Z,931.89
2022-12-04T01:39:58.944Z,931.87
2022-12-04T01:40:58.973Z,931.90
2022-12-04T01:41:58.974Z,931.89
2022-12-04T01:42:58.992Z,931.89
2022-12-04T01:43:59.003Z,931.85
2022-12-04T01:44:59.018Z,931.82
2022-12-04T01:45:59.142Z,931.74
2022-12-04T01:46:59.060Z,931.75
2022-12-04T01:47:59.071Z,931.70
2022-12-04T01:48:59.086Z,931.71
2022-12-04T01:49:59.103Z,931.67
2022-12-04T01:50:59.127Z,931.67
2022-12-04T01:51:59.137Z,931.69
2022-12-04T01:52:59.159Z,931.69
2022-12-04T01:53:59.199Z,931.70
2022-12-04T01:54:59.185Z,931.71
2022-12-04T01:55:59.212Z,931.68
2022-12-04T01:56:59.228Z,931.68
2022-12-04T01:57:59.245Z,931.65
2022-12-04T01:58:59.254Z,931.64
2022-12-04T01:59:59.271Z,931.63
2022-12-04T02:01:01.550Z,931.63
2022-12-04T02:01:59.485Z,931.60
2022-12-04T02:02:59.404Z,931.58
2022-12-04T02:03:59.347Z,931.58
2022-12-04T02:04:59.355Z,931.56
2022-12-04T02:05:59.380Z,931.54
2022-12-04T02:06:59.397Z,931.51
2022-12-04T02:07:59.472Z,931.54
2022-12-04T02:08:59.422Z,931.48
2022-12-04T02:09:59.464Z,931.51
2022-12-04T02:10:59.455Z,931.56
2022-12-04T02:11:59.488Z,931.50
2022-12-04T02:12:59.491Z,931.50
2022-12-04T02:13:59.509Z,931.52
2022-12-04T02:14:59.531Z,931.51
2022-12-04T02:15:59.543Z,931.51
2022-12-04T02:16:59.611Z,931.50
2022-12-04T02:17:59.574Z,931.49
2022-12-04T02:18:59.591Z,931.49
2022-12-04T02:19:59.608Z,931.44
2022-12-04T02:20:59.624Z,931.47
2022-12-04T02:21:59.651Z,931.43
2022-12-04T02:22:59.666Z,931.44
2022-12-04T02:23:59.683Z,931.42
2022-12-04T02:24:59.693Z,931.46
2022-12-04T02:25:59.734Z,931.43
2022-12-04T02:26:59.728Z,931.37
2022-12-04T02:27:59.750Z,931.39
2022-12-04T02:28:59.758Z,931.40
2022-12-04T02:29:59.783Z,931.36
2022-12-04T02:30:59.909Z,931.31
2022-12-04T02:31:59.817Z,931.34
2022-12-04T02:32:59.833Z,931.34
2022-12-04T02:33:59.855Z,931.34
2022-12-04T02:34:59.860Z,931.33
2022-12-04T02:35:59.882Z,931.33
2022-12-04T02:36:59.902Z,931.32
2022-12-04T02:37:59.919Z,931.26
2022-12-04T02:38:59.927Z,931.26
2022-12-04T02:39:59.944Z,931.25
2022-12-04T02:40:59.962Z,931.22
2022-12-04T02:42:00.006Z,931.21
2022-12-04T02:42:59.996Z,931.18
2022-12-04T02:44:00.023Z,931.20
2022-12-04T02:45:00.028Z,931.17
2022-12-04T02:46:00.158Z,931.17
2022-12-04T02:47:00.062Z,931.15
2022-12-04T02:48:00.086Z,931.13
2022-12-04T02:49:00.099Z,931.13
2022-12-04T02:50:00.171Z,931.13
2022-12-04T02:51:00.131Z,931.11
2022-12-04T02:52:00.152Z,931.10
2022-12-04T02:53:00.163Z,931.11
2022-12-04T02:54:00.185Z,931.07
2022-12-04T02:55:04.006Z,931.05
2022-12-04T02:56:00.221Z,931.00
2022-12-04T02:57:00.237Z,931.03
2022-12-04T02:58:00.269Z,931.00
2022-12-04T02:59:00.270Z,931.00
2022-12-04T03:00:00.283Z,930.95
2022-12-04T03:01:00.389Z,930.96
2022-12-04T03:02:00.436Z,930.98
2022-12-04T03:03:00.420Z,931.00
2022-12-04T03:04:00.371Z,930.98
2022-12-04T03:05:00.376Z,930.96
2022-12-04T03:06:00.382Z,931.00
2022-12-04T03:07:00.399Z,930.95
2022-12-04T03:08:00.587Z,930.97
2022-12-04T03:09:00.432Z,930.96
2022-12-04T03:10:00.446Z,930.97
2022-12-04T03:11:00.477Z,930.91
2022-12-04T03:12:00.480Z,930.92
2022-12-04T03:13:00.505Z,930.87
2022-12-04T03:14:00.543Z,930.87
2022-12-04T03:15:00.540Z,930.88
2022-12-04T03:16:00.547Z,930.88
2022-12-04T03:17:00.617Z,930.84
2022-12-04T03:18:00.581Z,930.76
2022-12-04T03:19:00.600Z,930.77
2022-12-04T03:20:00.617Z,930.74
2022-12-04T03:21:00.630Z,930.74
2022-12-04T03:22:00.661Z,930.71
2022-12-04T03:23:00.674Z,930.62
2022-12-04T03:24:00.683Z,930.62
2022-12-04T03:25:00.700Z,930.60
2022-12-04T03:26:00.724Z,930.60
2022-12-04T03:27:00.733Z,930.61
2022-12-04T03:28:00.756Z,930.62
2022-12-04T03:29:00.772Z,930.59
2022-12-04T03:30:00.811Z,930.55
2022-12-04T03:31:00.879Z,930.58
2022-12-04T03:32:00.816Z,930.59
2022-12-04T03:33:00.832Z,930.59
2022-12-04T03:34:00.848Z,930.58
2022-12-04T03:35:00.878Z,930.60
2022-12-04T03:36:00.891Z,930.58
2022-12-04T03:37:00.899Z,930.58
2022-12-04T03:38:00.923Z,930.55
2022-12-04T03:39:00.941Z,930.62
2022-12-04T03:40:00.957Z,930.62
2022-12-04T03:41:00.965Z,930.59
2022-12-04T03:42:01.386Z,930.57
2022-12-04T03:43:01.009Z,930.57
2022-12-04T03:44:01.017Z,930.54
2022-12-04T03:45:01.040Z,930.50
2022-12-04T03:46:01.114Z,930.48
2022-12-04T03:47:01.075Z,930.46
2022-12-04T03:48:01.091Z,930.44
2022-12-04T03:49:01.099Z,930.44
2022-12-04T03:50:01.122Z,930.46
2022-12-04T03:51:01.132Z,930.46
2022-12-04T03:52:01.149Z,930.47
2022-12-04T03:53:01.173Z,930.47
2022-12-04T03:54:01.181Z,930.45
2022-12-04T03:55:01.201Z,930.43
2022-12-04T03:56:01.222Z,930.39
2022-12-04T03:57:01.238Z,930.37
2022-12-04T03:58:01.248Z,930.42
2022-12-04T03:59:01.267Z,930.37
2022-12-04T04:00:01.819Z,930.36
2022-12-04T04:01:01.339Z,930.34
2022-12-04T04:02:01.456Z,930.35
2022-12-04T04:03:01.414Z,930.34
2022-12-04T04:04:01.350Z,930.36
2022-12-04T04:05:01.376Z,930.33
2022-12-04T04:06:01.391Z,930.33
2022-12-04T04:07:01.397Z,930.32
2022-12-04T04:08:01.508Z,930.26
2022-12-04T04:09:01.433Z,930.23
2022-12-04T04:10:01.455Z,930.27
2022-12-04T04:11:01.475Z,930.21
2022-12-04T04:12:01.489Z,930.22
2022-12-04T04:13:01.504Z,930.18
2022-12-04T04:14:01.521Z,930.19
2022-12-04T04:15:01.531Z,930.24
2022-12-04T04:16:01.600Z,930.15
2022-12-04T04:17:01.565Z,930.19
2022-12-04T04:18:01.610Z,930.19
2022-12-04T04:19:01.605Z,930.21
2022-12-04T04:20:01.620Z,930.20
2022-12-04T04:21:01.632Z,930.20
2022-12-04T04:22:01.647Z,930.15
2022-12-04T04:23:01.671Z,930.16
2022-12-04T04:24:01.691Z,930.11
2022-12-04T04:25:01.707Z,930.14
2022-12-04T04:26:01.723Z,930.14
2022-12-04T04:27:01.740Z,930.09
2022-12-04T04:28:01.756Z,930.08
2022-12-04T04:29:01.763Z,930.12
2022-12-04T04:30:01.788Z,930.12
2022-12-04T04:31:01.867Z,930.11
2022-12-04T04:32:01.826Z,930.15
2022-12-04T04:33:01.832Z,930.12
2022-12-04T04:34:01.869Z,930.06
2022-12-04T04:35:01.866Z,930.07
2022-12-04T04:36:01.886Z,930.04
2022-12-04T04:37:01.899Z,930.02
2022-12-04T04:38:01.913Z,929.99
2022-12-04T04:39:01.930Z,930.00
2022-12-04T04:40:01.956Z,929.99
2022-12-04T04:41:01.964Z,929.96
2022-12-04T04:42:01.981Z,929.94
2022-12-04T04:43:02.003Z,929.95
2022-12-04T04:44:02.014Z,929.92
2022-12-04T04:45:02.038Z,929.93
2022-12-04T04:46:02.096Z,929.95
2022-12-04T04:47:02.067Z,929.91
2022-12-04T04:48:02.087Z,929.91
2022-12-04T04:49:02.104Z,929.91
2022-12-04T04:50:02.135Z,929.90
2022-12-04T04:51:02.131Z,929.89
2022-12-04T04:52:02.153Z,929.89
2022-12-04T04:53:02.181Z,929.90
2022-12-04T04:54:02.178Z,929.84
2022-12-04T04:55:02.199Z,929.86
2022-12-04T04:56:02.221Z,929.82
2022-12-04T04:57:02.237Z,929.80
2022-12-04T04:58:02.260Z,929.75
2022-12-04T04:59:02.262Z,929.76
2022-12-04T05:00:02.286Z,929.79
2022-12-04T05:01:02.301Z,929.75
2022-12-04T05:02:02.364Z,929.70
2022-12-04T05:03:02.412Z,929.69
2022-12-04T05:04:02.346Z,929.68
2022-12-04T05:05:02.364Z,929.75
2022-12-04T05:06:02.410Z,929.73
2022-12-04T05:07:02.393Z,929.76
2022-12-04T05:08:02.511Z,929.76
2022-12-04T05:09:02.436Z,929.73
2022-12-04T05:10:02.452Z,929.72
2022-12-04T05:11:02.466Z,929.71
2022-12-04T05:12:02.479Z,929.69
2022-12-04T05:13:02.507Z,929.70
2022-12-04T05:14:02.518Z,929.70
2022-12-04T05:15:02.527Z,929.69
2022-12-04T05:16:02.633Z,929.69
2022-12-04T05:17:05.478Z,929.66
2022-12-04T05:18:02.583Z,929.68
2022-12-04T05:19:02.595Z,929.65
2022-12-04T05:20:02.609Z,929.66
2022-12-04T05:21:02.637Z,929.69
2022-12-04T05:22:02.668Z,929.69
2022-12-04T05:23:02.666Z,929.71
2022-12-04T05:24:02.683Z,929.70
2022-12-04T05:25:02.693Z,929.68
2022-12-04T05:26:02.716Z,929.68
2022-12-04T05:27:02.727Z,929.69
2022-12-04T05:28:02.750Z,929.67
2022-12-04T05:29:02.764Z,929.65
2022-12-04T05:30:02.783Z,929.67
2022-12-04T05:31:02.863Z,929.63
2022-12-04T05:32:02.809Z,929.66
2022-12-04T05:33:02.831Z,929.61
2022-12-04T05:34:02.850Z,929.59
2022-12-04T05:35:06.453Z,929.59
2022-12-04T05:36:02.898Z,929.62
2022-12-04T05:37:02.915Z,929.55
2022-12-04T05:38:02.961Z,929.54
2022-12-04T05:39:02.949Z,929.55
2022-12-04T05:40:02.968Z,929.54
2022-12-04T05:41:02.987Z,929.60
2022-12-04T05:42:03.002Z,929.59
2022-12-04T05:43:03.019Z,929.59
2022-12-04T05:44:03.028Z,929.58
2022-12-04T05:45:03.054Z,929.61
2022-12-04T05:46:03.072Z,929.62
2022-12-04T05:47:03.137Z,929.59
2022-12-04T05:48:03.102Z,929.60
2022-12-04T05:49:03.120Z,929.65
2022-12-04T05:50:03.127Z,929.63
2022-12-04T05:51:03.141Z,929.63
2022-12-04T05:52:03.165Z,929.64
2022-12-04T05:53:03.178Z,929.67
2022-12-04T05:54:03.216Z,929.71
2022-12-04T05:55:03.215Z,929.73
2022-12-04T05:56:03.236Z,929.72
2022-12-04T05:57:03.253Z,929.75
2022-12-04T05:58:03.266Z,929.71
2022-12-04T05:59:03.283Z,929.76
2022-12-04T06:00:03.299Z,929.74
2022-12-04T06:01:03.313Z,929.77
2022-12-04T06:02:03.400Z,929.75
2022-12-04T06:03:03.451Z,929.74
2022-12-04T06:04:03.380Z,929.75
2022-12-04T06:05:03.373Z,929.74
2022-12-04T06:06:03.396Z,929.77
2022-12-04T06:07:03.415Z,929.78
2022-12-04T06:08:03.486Z,929.77
2022-12-04T06:09:03.442Z,929.76
2022-12-04T06:10:03.487Z,929.75
2022-12-04T06:11:03.481Z,929.73
2022-12-04T06:12:03.475Z,929.75
2022-12-04T06:13:03.486Z,929.72
2022-12-04T06:14:03.510Z,929.71
2022-12-04T06:15:03.535Z,929.67
2022-12-04T06:16:03.583Z,929.68
2022-12-04T06:17:03.551Z,929.65
2022-12-04T06:18:03.971Z,929.62
2022-12-04T06:19:03.582Z,929.61
2022-12-04T06:20:09.503Z,929.61
2022-12-04T06:21:03.704Z,929.59
2022-12-04T06:22:03.633Z,929.59
2022-12-04T06:23:03.655Z,929.57
2022-12-04T06:24:03.665Z,929.53
2022-12-04T06:25:03.681Z,929.51
2022-12-04T06:26:07.080Z,929.48
2022-12-04T06:27:26.910Z,929.43
2022-12-04T06:28:03.735Z,929.42
2022-12-04T06:29:03.748Z,929.43
2022-12-04T06:30:03.769Z,929.43
2022-12-04T06:31:03.789Z,929.42
2022-12-04T06:32:03.921Z,929.38
2022-12-04T06:33:03.819Z,929.36
2022-12-04T06:34:03.834Z,929.39
2022-12-04T06:35:03.853Z,929.41
2022-12-04T06:36:03.861Z,929.42
2022-12-04T06:37:03.881Z,929.40
2022-12-04T06:38:03.895Z,929.43
2022-12-04T06:39:03.939Z,929.42
2022-12-04T06:40:03.944Z,929.45
2022-12-04T06:41:03.943Z,929.51
2022-12-04T06:42:03.983Z,929.52
2022-12-04T06:43:03.983Z,929.54
2022-12-04T06:44:03.996Z,929.55
2022-12-04T06:45:04.017Z,929.58
2022-12-04T06:46:04.152Z,929.57
2022-12-04T06:47:04.043Z,929.59
2022-12-04T06:48:04.066Z,929.60
2022-12-04T06:49:04.081Z,929.56
2022-12-04T06:50:04.090Z,929.58
2022-12-04T06:51:04.106Z,929.59
2022-12-04T06:52:04.127Z,929.58
2022-12-04T06:53:08.353Z,929.59
2022-12-04T06:54:04.155Z,929.63
2022-12-04T06:55:04.171Z,929.61
2022-12-04T06:56:04.197Z,929.64
2022-12-04T06:57:04.211Z,929.65
2022-12-04T06:58:04.251Z,929.64
2022-12-04T06:59:04.246Z,929.60
2022-12-04T07:00:04.254Z,929.64
2022-12-04T07:01:04.435Z,929.65
2022-12-04T07:02:04.351Z,929.60
2022-12-04T07:03:04.304Z,929.58
2022-12-04T07:04:04.556Z,929.58
2022-12-04T07:05:04.342Z,929.56
2022-12-04T07:06:04.353Z,929.56
2022-12-04T07:07:04.367Z,929.58
2022-12-04T07:08:04.452Z,929.62
2022-12-04T07:09:04.402Z,929.56
2022-12-04T07:10:04.470Z,929.59
2022-12-04T07:11:04.433Z,929.64
2022-12-04T07:12:04.452Z,929.62
2022-12-04T07:13:04.474Z,929.60
2022-12-04T07:14:04.503Z,929.67
2022-12-04T07:15:04.498Z,929.66
2022-12-04T07:16:04.560Z,929.65
2022-12-04T07:17:04.597Z,929.64
2022-12-04T07:18:04.554Z,929.65
2022-12-04T07:19:04.563Z,929.60
2022-12-04T07:20:04.662Z,929.66
2022-12-04T07:21:04.603Z,929.68
2022-12-04T07:22:04.621Z,929.67
2022-12-04T07:23:07.363Z,929.65
2022-12-04T07:24:04.656Z,929.68
2022-12-04T07:25:04.669Z,929.69
2022-12-04T07:26:04.680Z,929.70
2022-12-04T07:27:04.694Z,929.71
2022-12-04T07:28:04.712Z,929.73
2022-12-04T07:29:04.726Z,929.73
2022-12-04T07:30:04.764Z,929.76
2022-12-04T07:31:04.768Z,929.78
2022-12-04T07:32:04.830Z,929.78
2022-12-04T07:33:04.799Z,929.78
2022-12-04T07:34:04.810Z,929.80
2022-12-04T07:35:04.835Z,929.82
2022-12-04T07:36:04.841Z,929.77
2022-12-04T07:37:04.884Z,929.82
2022-12-04T07:38:04.875Z,929.81
2022-12-04T07:39:04.890Z,929.82
2022-12-04T07:40:04.914Z,929.77
2022-12-04T07:41:04.922Z,929.78
2022-12-04T07:42:04.937Z,929.79
2022-12-04T07:43:04.964Z,929.75
2022-12-04T07:44:04.978Z,929.75
2022-12-04T07:45:04.995Z,929.75
2022-12-04T07:46:05.058Z,929.76
2022-12-04T07:47:05.021Z,929.79
2022-12-04T07:48:05.044Z,929.77
2022-12-04T07:49:05.059Z,929.79
2022-12-04T07:50:05.076Z,929.79
2022-12-04T07:51:05.085Z,929.80
2022-12-04T07:52:05.101Z,929.79
2022-12-04T07:53:05.124Z,929.76
2022-12-04T07:54:05.134Z,929.78
2022-12-04T07:55:05.159Z,929.78
2022-12-04T07:56:05.174Z,929.76
2022-12-04T07:57:05.189Z,929.76
2022-12-04T07:58:05.208Z,929.75
2022-12-04T07:59:05.222Z,929.80
2022-12-04T08:00:05.238Z,929.82
2022-12-04T08:01:05.459Z,929.80
2022-12-04T08:02:05.286Z,929.86
2022-12-04T08:03:05.279Z,929.86
2022-12-04T08:04:05.399Z,929.90
2022-12-04T08:05:05.335Z,929.90
2022-12-04T08:06:05.328Z,929.90
2022-12-04T08:07:05.345Z,929.87
2022-12-04T08:08:05.442Z,929.91
2022-12-04T08:09:09.879Z,929.91
2022-12-04T08:10:05.400Z,929.91
2022-12-04T08:11:05.409Z,929.94
2022-12-04T08:12:05.427Z,929.96
2022-12-04T08:13:05.455Z,929.98
2022-12-04T08:14:05.460Z,929.95
2022-12-04T08:15:05.474Z,929.99
2022-12-04T08:16:05.493Z,930.04
2022-12-04T08:17:05.594Z,930.03
2022-12-04T08:18:05.552Z,930.05
2022-12-04T08:19:05.554Z,930.07
2022-12-04T08:20:05.555Z,930.07
2022-12-04T08:21:05.579Z,930.09
2022-12-04T08:22:05.598Z,930.11
2022-12-04T08:23:05.607Z,930.10
2022-12-04T08:24:05.623Z,930.14
2022-12-04T08:25:05.637Z,930.12
2022-12-04T08:26:05.661Z,930.13
2022-12-04T08:27:05.672Z,930.18
2022-12-04T08:28:05.685Z,930.18
2022-12-04T08:29:05.700Z,930.22
2022-12-04T08:30:05.719Z,930.21
2022-12-04T08:31:05.858Z,930.26
2022-12-04T08:32:05.750Z,930.30
2022-12-04T08:33:05.774Z,930.30
2022-12-04T08:34:05.815Z,930.33
2022-12-04T08:35:05.800Z,930.38
2022-12-04T08:36:05.814Z,930.37
2022-12-04T08:37:05.839Z,930.38
2022-12-04T08:38:05.848Z,930.40
2022-12-04T08:39:05.865Z,930.43
2022-12-04T08:40:05.881Z,930.44
2022-12-04T08:41:05.896Z,930.45
2022-12-04T08:42:05.918Z,930.51
2022-12-04T08:43:05.930Z,930.49
2022-12-04T08:44:05.953Z,930.56
2022-12-04T08:45:05.962Z,930.57
2022-12-04T08:46:06.151Z,930.63
2022-12-04T08:47:05.994Z,930.62
2022-12-04T08:48:06.019Z,930.64
2022-12-04T08:49:06.025Z,930.66
2022-12-04T08:50:06.066Z,930.65
2022-12-04T08:51:06.058Z,930.69
2022-12-04T08:52:06.080Z,930.70
2022-12-04T08:53:06.089Z,930.72
2022-12-04T08:54:06.105Z,930.73
2022-12-04T08:55:06.122Z,930.79
2022-12-04T08:56:06.146Z,930.78
2022-12-04T08:57:06.154Z,930.82
2022-12-04T08:58:06.170Z,930.79
2022-12-04T08:59:06.193Z,930.79
2022-12-04T09:00:06.214Z,930.78
2022-12-04T09:01:06.295Z,930.77
2022-12-04T09:02:06.354Z,930.77
2022-12-04T09:03:06.251Z,930.75
2022-12-04T09:04:06.471Z,930.78
2022-12-04T09:05:06.287Z,930.74
2022-12-04T09:06:06.322Z,930.73
2022-12-04T09:07:06.325Z,930.72
2022-12-04T09:08:06.428Z,930.71
2022-12-04T09:09:06.356Z,930.75
2022-12-04T09:10:06.367Z,930.70
2022-12-04T09:11:06.381Z,930.76
2022-12-04T09:12:06.399Z,930.73
2022-12-04T09:13:06.412Z,930.77
2022-12-04T09:14:06.429Z,930.78
2022-12-04T09:15:06.453Z,930.77
2022-12-04T09:16:06.555Z,930.76
2022-12-04T09:17:06.484Z,930.77
2022-12-04T09:18:06.502Z,930.76
2022-12-04T09:19:06.526Z,930.82
2022-12-04T09:20:07.055Z,930.83
2022-12-04T09:21:06.561Z,930.85
2022-12-04T09:22:06.589Z,930.86
2022-12-04T09:23:06.577Z,930.88
2022-12-04T09:24:06.597Z,930.95
2022-12-04T09:25:06.612Z,930.94
2022-12-04T09:26:06.625Z,930.98
2022-12-04T09:27:11.253Z,930.99
2022-12-04T09:28:06.665Z,931.00
2022-12-04T09:29:06.693Z,931.02
2022-12-04T09:30:06.695Z,931.02
2022-12-04T09:31:06.805Z,931.01
2022-12-04T09:32:06.721Z,931.03
2022-12-04T09:33:06.742Z,931.04
2022-12-04T09:34:06.750Z,931.10
2022-12-04T09:35:06.769Z,931.06
2022-12-04T09:36:06.793Z,931.06
2022-12-04T09:37:06.806Z,931.06
2022-12-04T09:38:06.845Z,931.02
2022-12-04T09:39:06.836Z,931.02
2022-12-04T09:40:06.857Z,931.02
2022-12-04T09:41:06.865Z,931.03
2022-12-04T09:42:06.894Z,931.03
2022-12-04T09:43:06.905Z,931.06
2022-12-04T09:44:06.915Z,931.03
2022-12-04T09:45:06.934Z,931.07
2022-12-04T09:46:07.036Z,931.06
2022-12-04T09:47:07.053Z,931.13
2022-12-04T09:48:06.985Z,931.13
2022-12-04T09:49:06.996Z,931.17
2022-12-04T09:50:07.009Z,931.14
2022-12-04T09:51:07.032Z,931.16
2022-12-04T09:52:07.054Z,931.17
2022-12-04T09:53:07.059Z,931.17
2022-12-04T09:54:07.101Z,931.15
2022-12-04T09:55:07.098Z,931.18
2022-12-04T09:56:07.113Z,931.15
2022-12-04T09:57:07.121Z,931.16
2022-12-04T09:58:07.146Z,931.16
2022-12-04T09:59:07.153Z,931.14
2022-12-04T10:00:07.247Z,931.18
2022-12-04T10:01:07.186Z,931.18
2022-12-04T10:02:07.267Z,931.17
2022-12-04T10:03:07.356Z,931.20
2022-12-04T10:04:07.396Z,931.19
2022-12-04T10:05:07.252Z,931.20
2022-12-04T10:06:07.274Z,931.17
2022-12-04T10:07:07.291Z,931.18
2022-12-04T10:08:07.363Z,931.23
2022-12-04T10:09:07.323Z,931.22
2022-12-04T10:10:07.374Z,931.24
2022-12-04T10:11:07.357Z,931.26
2022-12-04T10:12:07.374Z,931.25
2022-12-04T10:13:07.388Z,931.26
2022-12-04T10:14:07.403Z,931.32
2022-12-04T10:15:07.419Z,931.30
2022-12-04T10:16:07.487Z,931.30
2022-12-04T10:17:07.453Z,931.31
2022-12-04T10:18:07.459Z,931.26
2022-12-04T10:19:07.476Z,931.27
2022-12-04T10:20:07.501Z,931.29
2022-12-04T10:21:07.507Z,931.31
2022-12-04T10:22:07.525Z,931.31
2022-12-04T10:23:12.266Z,931.30
2022-12-04T10:24:07.559Z,931.30
2022-12-04T10:25:07.572Z,931.29
2022-12-04T10:26:07.620Z,931.32
2022-12-04T10:27:07.607Z,931.41
2022-12-04T10:28:07.628Z,931.37
2022-12-04T10:29:07.645Z,931.40
2022-12-04T10:30:07.660Z,931.37
2022-12-04T10:31:07.732Z,931.46
2022-12-04T10:32:07.696Z,931.49
2022-12-04T10:33:07.702Z,931.51
2022-12-04T10:34:07.725Z,931.52
2022-12-04T10:35:07.735Z,931.52
2022-12-04T10:36:07.757Z,931.51
2022-12-04T10:37:07.765Z,931.47
2022-12-04T10:38:07.781Z,931.53
2022-12-04T10:39:07.810Z,931.50
2022-12-04T10:40:07.814Z,931.51
2022-12-04T10:41:13.308Z,931.53
2022-12-04T10:42:07.868Z,931.52
2022-12-04T10:43:07.869Z,931.53
2022-12-04T10:44:07.879Z,931.54
2022-12-04T10:45:07.893Z,931.55
2022-12-04T10:46:07.952Z,931.54
2022-12-04T10:47:07.988Z,931.56
2022-12-04T10:48:07.952Z,931.53
2022-12-04T10:49:07.959Z,931.57
2022-12-04T10:50:07.974Z,931.58
2022-12-04T10:51:07.992Z,931.60
2022-12-04T10:52:08.009Z,931.57
2022-12-04T10:53:13.466Z,931.60
2022-12-04T10:54:08.047Z,931.65
2022-12-04T10:55:08.058Z,931.61
2022-12-04T10:56:08.084Z,931.67
2022-12-04T10:57:08.095Z,931.66
2022-12-04T10:58:08.134Z,931.68
2022-12-04T10:59:08.120Z,931.68
2022-12-04T11:00:08.138Z,931.69
2022-12-04T11:01:08.176Z,931.70
2022-12-04T11:02:08.192Z,931.71
2022-12-04T11:03:08.339Z,931.74
2022-12-04T11:04:08.201Z,931.75
2022-12-04T11:05:08.216Z,931.81
2022-12-04T11:06:08.233Z,931.80
2022-12-04T11:07:08.258Z,931.82
2022-12-04T11:08:08.415Z,931.81
2022-12-04T11:09:08.283Z,931.79
2022-12-04T11:10:08.296Z,931.78
2022-12-04T11:11:08.313Z,931.77
2022-12-04T11:12:08.336Z,931.78
2022-12-04T11:13:08.353Z,931.80
2022-12-04T11:14:08.395Z,931.78
2022-12-04T11:15:08.386Z,931.76
2022-12-04T11:16:08.458Z,931.75
2022-12-04T11:17:08.411Z,931.78
2022-12-04T11:18:08.434Z,931.76
2022-12-04T11:19:08.444Z,931.79
2022-12-04T11:20:08.457Z,931.80
2022-12-04T11:21:08.484Z,931.84
2022-12-04T11:22:08.490Z,931.81
2022-12-04T11:23:08.508Z,931.82
2022-12-04T11:24:08.530Z,931.79
2022-12-04T11:25:08.546Z,931.82
2022-12-04T11:26:08.559Z,931.80
2022-12-04T11:27:08.620Z,931.77
2022-12-04T11:28:12.099Z,931.77
2022-12-04T11:29:08.610Z,931.74
2022-12-04T11:30:08.642Z,931.77
2022-12-04T11:31:08.707Z,931.79
2022-12-04T11:32:08.773Z,931.76
2022-12-04T11:33:08.668Z,931.76
2022-12-04T11:34:08.690Z,931.83
2022-12-04T11:35:08.707Z,931.80
2022-12-04T11:36:08.726Z,931.76
2022-12-04T11:37:08.731Z,931.80
2022-12-04T11:38:08.748Z,931.79
2022-12-04T11:39:08.773Z,931.77
2022-12-04T11:40:08.789Z,931.77
2022-12-04T11:41:08.806Z,931.78
2022-12-04T11:42:08.812Z,931.72
2022-12-04T11:43:08.828Z,931.76
2022-12-04T11:44:08.854Z,931.73
2022-12-04T11:45:08.869Z,931.73
2022-12-04T11:46:08.946Z,931.75
2022-12-04T11:47:08.936Z,931.73
2022-12-04T11:48:08.917Z,931.74
2022-12-04T11:49:08.942Z,931.74
2022-12-04T11:50:08.941Z,931.73
2022-12-04T11:51:08.959Z,931.77
2022-12-04T11:52:08.983Z,931.76
2022-12-04T11:53:08.997Z,931.72
2022-12-04T11:54:09.010Z,931.72
2022-12-04T11:55:09.023Z,931.71
2022-12-04T11:56:09.041Z,931.71
2022-12-04T11:57:09.067Z,931.68
2022-12-04T11:58:09.079Z,931.66
2022-12-04T11:59:09.089Z,931.67
2022-12-04T12:00:09.114Z,931.62
2022-12-04T12:01:09.143Z,931.67
2022-12-04T12:02:09.314Z,931.63
2022-12-04T12:03:09.380Z,931.66
2022-12-04T12:04:09.175Z,931.66
2022-12-04T12:05:09.183Z,931.65
2022-12-04T12:06:09.199Z,931.65
2022-12-04T12:07:09.217Z,931.67
2022-12-04T12:08:09.233Z,931.68
2022-12-04T12:09:09.250Z,931.67
2022-12-04T12:10:09.264Z,931.66
2022-12-04T12:11:09.280Z,931.65
2022-12-04T12:12:09.300Z,931.62
2022-12-04T12:13:09.319Z,931.62
2022-12-04T12:14:09.329Z,931.63
2022-12-04T12:15:09.352Z,931.61
2022-12-04T12:16:09.453Z,931.63
2022-12-04T12:17:09.387Z,931.59
2022-12-04T12:18:09.420Z,931.60
2022-12-04T12:19:09.411Z,931.60
2022-12-04T12:20:09.433Z,931.58
2022-12-04T12:21:09.450Z,931.58
2022-12-04T12:22:09.469Z,931.59
2022-12-04T12:23:09.475Z,931.64
2022-12-04T12:24:09.503Z,931.63
2022-12-04T12:25:09.509Z,931.64
2022-12-04T12:26:09.523Z,931.62
2022-12-04T12:27:09.557Z,931.64
2022-12-04T12:28:09.557Z,931.63
2022-12-04T12:29:09.583Z,931.64